Latest Weather Observations for Camden

IDN60901

Issued at 2:21 am EDT Saturday 29 February 2020 (issued every 10 minutes, with the page automatically refreshed every 10 minutes)

About weather observations | Map of Sydney area stations | Latest observations for Sydney area | Other Formats
Station Details ID: 068192 Name: CAMDEN AIRPORT AWS Lat: -34.04 Lon: 150.69 Height: 73.9 m
Data from the previous 72 hours. | See also: Recent months at Camden
Date/Time
EDT
Temp
°C
App
Temp
°C
Dew
Point
°C
Rel
Hum
%
Delta-T
°C
Wind Press
QNH
hPa
Press
MSL
hPa
Rain since
9am
mm
Dir  Spd
km/h
Gust
km/h
Spd
kts
Gust
kts
29/02:00am 18.3 20.1 15.4 83 1.7 CALM 0 0 0 0 1017.5 1017.2 0.0
29/01:30am 18.5 18.8 15.0 80 2.0 S 7 9 4 5 1017.7 1017.4 0.0
29/01:00am 18.6 20.4 15.5 82 1.8 CALM 0 0 0 0 1017.7 1017.4 0.0
29/12:30am 18.6 20.2 14.9 79 2.2 CALM 0 0 0 0 1017.8 1017.5 0.0
29/12:00am 18.6 20.0 14.3 76 2.5 CALM 0 0 0 0 1017.8 1017.5 0.0
 
Date/Time
EDT
Temp
°C
App
Temp
°C
Dew
Point
°C
Rel
Hum
%
Delta-T
°C
Wind Press
QNH
hPa
Press
MSL
hPa
Rain since
9am
mm
Dir  Spd
km/h
Gust
km/h
Spd
kts
Gust
kts
28/11:30pm 18.8 20.2 14.5 76 2.5 CALM 0 0 0 0 1017.7 1017.4 0.0
28/11:00pm 18.6 20.0 14.5 77 2.4 CALM 0 0 0 0 1017.7 1017.4 0.0
28/10:30pm 18.5 20.1 14.8 79 2.2 CALM 0 0 0 0 1017.8 1017.5 0.0
28/10:00pm 18.4 19.4 13.1 71 3.0 CALM 0 0 0 0 1017.7 1017.4 0.0
28/09:30pm 18.7 19.7 13.1 70 3.2 CALM 0 0 0 0 1017.5 1017.2 0.0
28/09:00pm 19.1 19.0 13.3 69 3.3 ESE 6 9 3 5 1017.1 1016.7 0.0
28/08:30pm 19.4 18.7 13.1 67 3.6 ESE 9 13 5 7 1016.6 1016.2 0.0
28/08:00pm 19.7 18.1 12.9 65 3.8 ESE 13 20 7 11 1016.0 1015.6 0.0
28/07:30pm 20.0 18.5 13.0 64 4.0 ESE 13 20 7 11 1015.3 1015.0 0.0
28/07:00pm 20.3 18.5 13.3 64 4.0 ESE 15 22 8 12 1014.7 1014.4 0.0
28/06:30pm 20.8 19.2 12.8 60 4.6 ESE 13 20 7 11 1014.3 1014.0 0.0
28/06:00pm 21.3 19.1 13.2 60 4.7 ESE 17 24 9 13 1013.6 1013.3 0.0
28/05:30pm 22.0 19.7 13.1 57 5.1 SE 17 24 9 13 1013.2 1012.9 0.0
28/05:00pm 23.9 22.3 14.0 54 5.8 ESE 15 24 8 13 1012.7 1012.4 0.0
28/04:30pm 23.7 21.5 13.3 52 6.0 E 17 28 9 15 1012.3 1012.0 0.0
28/04:00pm 24.4 22.4 13.9 52 6.2 ESE 17 30 9 16 1012.0 1011.7 0.0
28/03:30pm 25.1 23.0 13.6 49 6.8 ESE 17 24 9 13 1011.8 1011.5 0.0
28/03:00pm 25.3 23.0 12.9 46 7.2 ESE 17 26 9 14 1011.8 1011.5 0.0
28/02:30pm 26.0 23.6 11.4 40 8.3 E 15 24 8 13 1011.7 1011.4 0.0
28/02:00pm 25.8 22.7 12.3 43 7.8 ENE 20 30 11 16 1011.7 1011.4 0.0
28/01:30pm 26.3 23.4 4.7 25 11.0 SSE 9 11 5 6 1011.7 1011.4 0.0
28/01:00pm 26.3 23.6 7.4 30 10.1 ESE 11 20 6 11 1012.0 1011.7 0.0
28/12:30pm 26.0 23.5 8.0 32 9.7 E 11 17 6 9 1012.1 1011.8 0.0
28/12:00pm 24.8 22.7 5.6 29 9.8 E 6 13 3 7 1012.2 1011.9 0.0
28/11:30am 24.3 22.4 7.4 34 8.9 SE 7 11 4 6 1012.2 1011.9 0.0
28/11:00am 23.5 20.9 6.3 33 8.8 SE 9 13 5 7 1012.2 1011.9 0.0
28/10:30am 22.9 20.3 6.2 34 8.5 SSE 9 15 5 8 1011.8 1011.5 0.0
28/10:00am 21.6 19.5 6.7 38 7.6 ESE 7 13 4 7 1011.6 1011.3 0.0
28/09:30am 20.0 18.3 7.7 45 6.3 SSE 6 11 3 6 1011.4 1011.1 0.0
28/09:00am 18.1 15.7 10.0 59 4.3 SSE 13 17 7 9 1011.2 1010.9 0.0
28/08:30am 15.2 15.4 13.2 88 1.1 SSW 4 7 2 4 1010.9 1010.6 0.0
28/08:00am 13.5 14.5 13.3 99 0.1 CALM 0 0 0 0 1010.6 1010.3 0.0
28/07:39am 12.6 13.4 12.4 99 0.1 CALM 0 0 0 0 1010.3 1010.0 0.0
28/07:30am 12.0 12.6 11.8 99 0.1 CALM 0 0 0 0 1010.3 1010.0 0.0
28/07:03am 11.7 12.2 11.5 99 0.1 CALM 0 0 0 0 1009.6 1009.3 0.0
28/07:00am 11.7 12.2 11.5 99 0.1 CALM 0 0 0 0 1009.5 1009.2 0.0
28/06:47am 11.5 11.9 11.3 99 0.1 CALM 0 0 0 0 1009.2 1008.9 0.0
28/06:30am 11.3 11.7 11.1 99 0.1 CALM 0 0 0 0 1008.9 1008.6 0.0
28/06:00am 12.2 12.8 12.0 99 0.1 CALM 0 0 0 0 1008.4 1008.1 0.0
28/05:48am 12.7 13.5 12.5 99 0.1 CALM 0 0 0 0 1008.7 1008.4 0.0
28/05:30am 12.2 12.8 12.0 99 0.1 CALM 0 0 0 0 1008.6 1008.3 0.0
28/05:20am 12.6 13.4 12.4 99 0.1 CALM 0 0 0 0 1008.5 1008.2 0.0
28/05:00am 12.8 13.6 12.6 99 0.1 CALM 0 0 0 0 1008.6 1008.3 0.0
28/04:56am 12.6 13.4 12.4 99 0.1 CALM 0 6 0 3 1008.5 1008.2 0.0
28/04:30am 13.7 13.5 13.5 99 0.1 S 7 11 4 6 1008.3 1008.0 0.0
28/04:00am 13.8 13.6 13.6 99 0.1 S 7 11 4 6 1008.2 1007.9 0.0
28/03:30am 14.6 16.0 14.4 99 0.1 CALM 0 0 0 0 1007.9 1007.6 0.0
28/03:00am 14.7 16.1 14.5 99 0.1 CALM 0 0 0 0 1008.1 1007.8 0.0
28/02:54am 14.6 16.0 14.4 99 0.1 CALM 0 0 0 0 1008.2 1007.9 0.0
28/02:52am 14.7 16.1 14.5 99 0.1 CALM 0 0 0 0 1008.3 1008.0 0.0
28/02:30am 15.7 17.5 15.5 99 0.1 CALM 0 0 0 0 1008.3 1008.0 0.0
28/02:14am 15.8 17.6 15.6 99 0.1 CALM 0 0 0 0 1008.4 1008.1 0.0
28/02:00am 15.9 17.8 15.7 99 0.1 CALM 0 0 0 0 1008.4 1008.1 0.0
28/01:35am 16.1 18.1 15.9 99 0.1 CALM 0 0 0 0 1008.6 1008.3 0.0
28/01:30am 16.6 18.7 16.3 98 0.2 CALM 0 0 0 0 1008.7 1008.4 0.0
28/01:00am 16.7 18.7 16.1 96 0.4 CALM 0 0 0 0 1008.9 1008.6 0.0
28/12:30am 17.6 20.0 17.0 96 0.4 CALM 0 0 0 0 1008.8 1008.5 0.0
28/12:00am 17.6 19.5 16.6 94 0.6 SSW 2 7 1 4 1008.8 1008.5 0.0
 
Date/Time
EDT
Temp
°C
App
Temp
°C
Dew
Point
°C
Rel
Hum
%
Delta-T
°C
Wind Press
QNH
hPa
Press
MSL
hPa
Rain since
9am
mm
Dir  Spd
km/h
Gust
km/h
Spd
kts
Gust
kts
27/11:30pm 17.9 18.9 16.8 93 0.7 SE 7 9 4 5 1008.7 1008.4 0.0
27/11:00pm 18.3 20.6 16.8 91 0.9 CALM 0 6 0 3 1008.9 1008.6 0.0
27/10:30pm 19.0 20.6 16.8 87 1.3 WSW 4 6 2 3 1009.2 1008.9 0.0
27/10:00pm 20.0 22.2 16.6 81 2.1 CALM 0 0 0 0 1009.3 1009.0 0.0
27/09:30pm 20.2 22.0 16.4 79 2.3 N 2 7 1 4 1009.1 1008.8 0.0
27/09:00pm 21.1 22.6 16.7 76 2.7 ENE 4 11 2 6 1008.7 1008.4 0.0
27/08:30pm 21.4 21.5 16.6 74 2.9 NE 11 17 6 9 1008.1 1007.8 0.0
27/08:00pm 21.7 20.9 16.2 71 3.3 ENE 15 20 8 11 1007.4 1007.1 0.0
27/07:30pm 22.5 21.6 15.8 66 4.0 ENE 15 24 8 13 1006.8 1006.5 0.0
27/07:00pm 23.3 21.5 15.6 62 4.7 ENE 19 24 10 13 1006.4 1006.1 0.0
27/06:30pm 24.5 22.6 15.7 58 5.3 ENE 20 30 11 16 1005.9 1005.6 0.0
27/06:00pm 25.7 24.4 15.7 54 6.1 NE 17 26 9 14 1005.7 1005.4 0.0
27/05:30pm 26.2 24.4 15.6 52 6.5 ENE 19 28 10 15 1005.7 1005.4 0.0
27/05:00pm 26.5 25.8 15.5 50 6.7 NNE 13 19 7 10 1005.9 1005.6 0.0
27/04:30pm 26.5 25.2 14.9 49 7.0 N 15 22 8 12 1006.1 1005.8 0.0
27/04:00pm 26.9 25.9 16.5 53 6.5 N 17 24 9 13 1006.4 1006.1 0.0
27/03:30pm 26.2 24.2 15.0 50 6.8 N 19 28 10 15 1006.9 1006.6 0.0
27/03:00pm 25.8 24.2 14.9 51 6.6 N 17 28 9 15 1007.5 1007.2 0.0
27/02:30pm 24.6 22.2 14.4 53 6.1 NNE 20 28 11 15 1008.1 1007.8 0.0
27/02:00pm 24.1 21.1 13.6 52 6.2 NNE 22 33 12 18 1008.6 1008.3 0.0
27/01:30pm 25.7 24.7 15.7 54 6.1 NNE 15 24 8 13 1009.1 1008.8 0.0
27/01:00pm 24.1 21.7 13.9 53 6.0 NNE 19 30 10 16 1009.6 1009.3 0.0
27/12:30pm 24.5 23.8 14.3 53 6.1 N 11 22 6 12 1010.2 1009.9 0.0
27/12:00pm 23.5 21.4 13.7 54 5.7 N 17 24 9 13 1010.8 1010.5 0.0
27/11:30am 23.7 23.3 14.1 55 5.7 N 9 20 5 11 1011.4 1011.1 0.0
27/11:00am 22.6 22.7 13.9 58 5.1 N 6 13 3 7 1011.8 1011.5 0.0
27/10:30am 21.8 21.8 13.7 60 4.7 NNW 6 13 3 7 1011.9 1011.6 0.0
27/10:00am 21.0 21.4 13.7 63 4.2 NW 4 9 2 5 1011.9 1011.6 0.0
27/09:30am 20.4 20.8 13.6 65 3.9 WSW 4 9 2 5 1012.2 1011.9 0.0
27/09:00am 19.8 19.6 13.5 67 3.6 WSW 7 9 4 5 1012.4 1012.1 0.4
27/08:30am 19.1 18.7 14.1 73 2.9 WSW 9 11 5 6 1012.5 1012.2 0.4
27/08:00am 18.5 18.6 14.0 75 2.6 WSW 6 9 3 5 1012.5 1012.2 0.4
27/07:30am 17.9 19.2 14.2 79 2.1 CALM 0 0 0 0 1012.4 1012.1 0.4
27/07:00am 17.8 18.9 13.5 76 2.4 CALM 0 0 0 0 1012.1 1011.8 0.4
27/06:30am 17.9 18.3 13.6 76 2.4 SSW 4 7 2 4 1012.0 1011.7 0.4
27/06:00am 17.9 18.7 13.8 77 2.3 SW 2 7 1 4 1011.8 1011.5 0.4
27/05:30am 17.9 17.6 13.4 75 2.6 SSW 7 9 4 5 1011.6 1011.3 0.4
27/05:00am 17.8 19.1 14.1 79 2.1 CALM 0 0 0 0 1011.5 1011.2 0.4
27/04:30am 18.1 19.4 14.0 77 2.4 CALM 0 0 0 0 1011.4 1011.1 0.4
27/04:00am 18.1 19.3 13.8 76 2.5 CALM 0 0 0 0 1011.3 1011.0 0.4
27/03:30am 18.2 18.9 13.3 73 2.8 SW 2 9 1 5 1011.3 1011.0 0.4
27/03:00am 18.3 18.7 13.6 74 2.7 SSW 4 9 2 5 1011.1 1010.8 0.4
27/02:30am 18.4 18.2 13.5 73 2.8 SSW 7 7 4 4 1011.4 1011.1 0.4
27/02:00am 18.4 18.8 13.7 74 2.7 S 4 9 2 5 1011.6 1011.3 0.4
27/01:30am 18.4 18.4 13.5 73 2.8 S 6 11 3 6 1011.8 1011.5 0.4
27/01:00am 18.6 17.9 13.2 71 3.1 S 9 17 5 9 1011.7 1011.4 0.4
27/12:30am 18.6 17.5 13.2 71 3.1 S 11 17 6 9 1011.5 1011.2 0.4
27/12:00am 18.7 18.2 13.8 73 2.8 S 9 17 5 9 1011.3 1011.0 0.4
 
Date/Time
EDT
Temp
°C
App
Temp
°C
Dew
Point
°C
Rel
Hum
%
Delta-T
°C
Wind Press
QNH
hPa
Press
MSL
hPa
Rain since
9am
mm
Dir  Spd
km/h
Gust
km/h
Spd
kts
Gust
kts
26/11:30pm 18.7 17.8 13.8 73 2.8 S 11 17 6 9 1011.1 1010.8 0.4
26/11:00pm 18.7 17.1 13.8 73 2.8 SSE 15 20 8 11 1010.7 1010.4 0.4
26/10:30pm 18.5 16.9 13.8 74 2.7 SSE 15 22 8 12 1010.3 1010.0 0.4
26/10:00pm 18.7 16.5 14.4 76 2.5 SSE 19 26 10 14 1009.9 1009.6 0.4
26/09:30pm 19.1 16.0 14.6 75 2.6 S 24 41 13 22 1009.3 1009.0 0.4
26/09:00pm 19.6 17.2 15.3 76 2.5 S 22 35 12 19 1008.5 1008.2 0.4
26/08:30pm 20.0 17.1 15.2 74 2.8 SSE 24 41 13 22 1007.9 1007.6 0.4
26/08:00pm 21.0 17.4 15.3 70 3.4 SSE 28 37 15 20 1006.6 1006.3 0.4
26/07:30pm 24.0 21.5 14.1 54 5.8 SSE 20 52 11 28 1005.1 1004.7 0.4
26/07:28pm 24.9 23.2 13.5 49 6.7 S 15 52 8 28 1005.0 1004.6 0.4
26/07:27pm 25.8 24.8 13.3 46 7.3 SSW 11 52 6 28 1004.9 1004.5 0.4
26/07:00pm 30.8 30.6 13.6 35 10.4 SW 7 11 4 6 1003.6 1003.2 0.4
26/06:30pm 31.9 30.2 13.6 32 11.1 WSW 15 20 8 11 1003.3 1002.9 0.4
26/06:00pm 32.6 32.3 16.4 37 10.3 WSW 13 20 7 11 1003.3 1002.9 0.4
26/05:30pm 32.3 31.0 15.7 36 10.4 SW 17 26 9 14 1003.0 1002.6 0.4
26/05:00pm 32.5 31.8 16.3 37 10.3 W 15 22 8 12 1002.6 1002.2 0.4
26/04:30pm 31.3 28.0 14.9 37 10.1 WNW 26 33 14 18 1002.6 1002.2 0.4
26/04:00pm 32.8 32.3 17.8 40 9.7 W 17 26 9 14 1002.5 1002.1 0.4
26/03:30pm 30.7 29.8 17.7 45 8.3 NNW 19 24 10 13 1002.5 1002.1 0.4
26/03:00pm 31.5 32.7 19.8 49 7.8 N 13 22 7 12 1003.0 1002.6 0.4
26/02:30pm 29.9 30.3 19.9 55 6.6 N 17 20 9 11 1003.8 1003.4 0.4
26/02:00pm 28.4 31.2 20.9 64 5.0 NNW 7 13 4 7 1004.7 1004.3 0.4
26/01:30pm 25.7 27.9 20.3 72 3.5 N 9 13 5 7 1005.1 1004.7 0.4
26/01:00pm 23.7 23.9 19.4 77 2.8 WSW 17 24 9 13 1005.7 1005.4 0.4
26/12:47pm 23.4 22.7 18.7 75 3.0 WSW 20 28 11 15 1006.0 1005.7 0.4
26/12:30pm 27.0 24.6 16.3 52 6.6 W 24 59 13 32 1005.9 1005.6 0.0
26/12:28pm 29.1 27.3 15.6 44 8.3 W 19 59 10 32 1005.8 1005.5 0.0
26/12:00pm 30.3 30.1 16.7 44 8.6 NW 13 20 7 11 1005.4 1005.1 0.0
26/11:30am 30.9 30.5 18.9 48 7.8 N 19 24 10 13 1005.5 1005.2 0.0
26/11:00am 29.9 30.8 19.3 53 6.9 N 13 19 7 10 1006.0 1005.7 0.0
26/10:30am 28.6 30.0 19.5 58 5.9 NNE 11 15 6 8 1006.4 1006.1 0.0
26/10:00am 26.6 29.2 20.0 67 4.3 N 6 9 3 5 1006.8 1006.5 0.0
26/09:30am 24.4 27.2 20.5 79 2.5 N 6 9 3 5 1007.1 1006.8 0.0
26/09:00am 22.5 26.0 19.5 83 1.9 CALM 0 0 0 0 1007.3 1007.0 0.0
26/08:30am 21.5 24.9 19.4 88 1.3 CALM 0 0 0 0 1007.4 1007.1 0.0
26/08:00am 20.5 24.2 20.0 97 0.3 CALM 0 0 0 0 1007.7 1007.4 0.0
26/07:30am 19.4 22.8 19.4 100 0.0 CALM 0 0 0 0 1007.8 1007.5 0.0
26/07:19am 19.1 22.4 19.1 100 0.0 CALM 0 0 0 0 1007.8 1007.5 0.0
26/07:00am 18.4 21.3 18.2 99 0.1 CALM 0 0 0 0 1007.9 1007.6 0.0
26/06:30am 18.8 21.9 18.6 99 0.1 CALM 0 0 0 0 1007.8 1007.5 0.0
26/06:28am 18.8 21.9 18.6 99 0.1 CALM 0 0 0 0 1007.8 1007.5 0.0
26/06:00am 19.2 22.5 19.0 99 0.1 CALM 0 0 0 0 1007.9 1007.6 0.0
26/05:30am 19.3 22.6 19.1 99 0.1 CALM 0 0 0 0 1007.9 1007.6 0.0
26/05:00am 19.4 22.7 19.2 99 0.1 CALM 0 0 0 0 1008.0 1007.7 0.0
26/04:30am 19.6 23.0 19.4 99 0.1 CALM 0 0 0 0 1007.9 1007.6 0.0
26/04:00am 19.7 22.9 18.9 95 0.5 CALM 0 0 0 0 1008.2 1007.9 0.0
26/03:30am 20.2 23.6 19.4 95 0.5 CALM 0 0 0 0 1008.4 1008.1 0.0
26/03:00am 20.5 23.8 19.2 92 0.8 CALM 0 0 0 0 1008.7 1008.4 0.0
26/02:30am 20.9 24.2 19.0 89 1.2 CALM 0 0 0 0 1008.9 1008.6 0.0

Latest Capital City Observations: Canberra | Sydney | Melbourne | Brisbane | Adelaide | Perth | Hobart | Darwin

Other formats

Comma delimited format used in spreadsheet applications
http://www.bom.gov.au/fwo/IDN60901/IDN60901.94755.axf

JavaScript Object Notation format (JSON) in row-major order
http://www.bom.gov.au/fwo/IDN60901/IDN60901.94755.json

Data quality

Most of these data are generated automatically and are frequently updated. Quality checks on data are not normally performed. It is possible for incorrect values to appear. Refer to information at About Latest Weather Observations and please check the disclaimer before using these data.